Terminal Aerodrome Forecast
Issued by NWS

Home | Current Version | Previous Version | Text Only | Print | Product List | Glossary On
Versions: 1 2 3 4 5 6 7 8 9 10 11 12 13 14 15 16 17 18 19 20 21 22 23 24 25
000
FTUS43 KDLH 141100
TAFBRD
TAF
KBRD 141125Z 1412/1512 22010KT P6SM VCSH SCT080
     FM141400 27010KT P6SM BKN060
      TEMPO 1414/1418 BKN030
     FM141800 29010KT P6SM BKN040
     FM150100 32007KT P6SM BKN100=

USA.gov is the U.S. government's official web portal to all federal, state and local government web resources and services.